Skip Navigation Links
NOAA logo - Click to go to the NOAA homepage
NOAA's National Weather Service
Alaska Aviation Weather Unit
  NWS logo - Click to go to the NWS homepage
Left Navbar Graphic     09 AKDT = 17 GMT

   
NOAA is celebrating 200 years of science, service, and stewardship. Visit the NOAA 200th celebration Web site to learn more.
USA.gov is the U.S. Government's official Web portal to all Federal, state and local government Web resources and services.
Facebook
NWS on Facebook

Important Change Regarding the AAWU Web Presence

 

Over the last several months, the AAWU has been working to navigate its webpages to a nationally supported server. Security, as well as other needs, have necessitated the change.  In the process, we have made an effort to enhance the functionality of our website, as well as some of our products. As of June 20, 2017, aawu.arh.noaa.gov will be discontinued. The new AAWU web address is weather.gov/aawu. It is now live and will run in-parallel with the old site until it is discontinued. Please send any feedback or questions regarding the new webpages to nws.ar.aawu.webauthors@noaa.gov.  Thank you for your patience during this time of transition.
AAWU Home :: Display TAF Add Bookmark
METAR PASH 271116Z AUTO 04004KT 7SM FEW019 BKN036 OVC050 01/00 A2989 RMK
     AO1 PNO=

METAR PASH 271136Z AUTO 05004KT 10SM BKN023 OVC035 01/00 A2989 RMK AO1
     PNO=

METAR PASH 271156Z AUTO 05004KT 9SM OVC023 01/00 A2989 RMK AO1 10020
     20000 52003 PNO=

METAR PASH 271216Z AUTO 01004KT 9SM FEW023 SCT060 BKN070 00/M01
 A2989 RMK AO1 PNO=

METAR PASH 271236Z AUTO 02005KT 8SM FEW060 FEW065 FEW095 00/M01
 A2989 RMK AO1 PNO=

METAR PASH 271256Z AUTO 01004KT 5SM BKN036 M01/M01 A2989 RMK AO1 PNO=

METAR PASH 271316Z AUTO 36005KT 7SM FEW003 BKN020 OVC036 00/M01 A2989
     RMK AO1 PNO=

METAR PASH 271336Z AUTO 02006KT 1/2SM OVC018 00/M01 A2989 RMK AO1
     PNO=

METAR PASH 271356Z AUTO 03006KT 5SM OVC018 01/00 A2989 RMK AO1 PNO=

METAR PASH 271416Z AUTO 02006KT 9SM OVC018 01/00 A2989 RMK AO1 PNO=

METAR PASH 271436Z AUTO 02005KT 10SM OVC020 01/00 A2989 RMK AO1 PNO=

METAR PASH 271456Z AUTO 03004KT 10SM OVC020 01/00 A2990 RMK AO1
 52003 PNO=

METAR PASH 271516Z AUTO 04004KT 10SM OVC020 01/00 A2990 RMK AO1 PNO=

METAR PASH 271536Z AUTO 04004KT 10SM OVC020 01/01 A2990 RMK AO1 PNO=

METAR PASH 271556Z AUTO 11004KT 10SM OVC022 02/01 A2990 RMK AO1 PNO=

METAR PASH 271616Z AUTO 08004KT 10SM OVC022 02/01 A2990 RMK AO1 PNO=

METAR PASH 271636Z AUTO 07004KT 10SM OVC022 03/02 A2990 RMK AO1 PNO=

METAR PASH 271656Z AUTO 09005KT 10SM OVC022 03/03 A2991 RMK AO1 PNO=

METAR PASH 271716Z AUTO 11005KT 10SM OVC020 03/02 A2991 RMK AO1 PNO=


NOAA's National Weather Service
Alaska Aviation Weather Unit
6930 Sand Lake Road
Anchorage, AK 99502-1845
Disclaimer
Credits
Glossary
Privacy Policy
About Us
Career Opportunities
Contact AAWU Internet Services Site last modified: April, 17th 2012